<?xml version="1.0" encoding="utf-8"?>
<gpx xmlns:xsi="http://www.w3.org/2001/XMLSchema-instance" xmlns:xsd="http://www.w3.org/2001/XMLSchema" version="1.1" creator="Shapelink.com" xmlns="http://www.topografix.com/GPX/1/1" xmlns:gpxtpx="http://www.garmin.com/xmlschemas/TrackPointExtension/v1">
  <metadata>
    <name>Övrigt 1.03 km, 2019-05-14</name>
    <desc></desc>
    <author><name>Marian Moron</name></author> 
    <time>2019-05-14T19:59:16Z</time>
  </metadata>
  <trk>
    <name>Övrigt 1.03 km, 2019-05-14</name>
    <trkseg>
      <trkpt lat="51.230676803647" lon="4.458601920447">
        <ele>13.6</ele>
        <time>2019-05-14T21:04:45Z</time>
      </trkpt>
      <trkpt lat="51.230829354227" lon="4.458609715614">
        <ele>9.4</ele>
        <time>2019-05-14T21:05:12Z</time>
      </trkpt>
      <trkpt lat="51.230964218998" lon="4.45857400872">
        <ele>9.4</ele>
        <time>2019-05-14T21:05:36Z</time>
      </trkpt>
      <trkpt lat="51.231019790995" lon="4.458549533572">
        <ele>8.2</ele>
        <time>2019-05-14T21:05:48Z</time>
      </trkpt>
      <trkpt lat="51.231096904475" lon="4.458509719547">
        <ele>0.6</ele>
        <time>2019-05-14T21:06:16Z</time>
      </trkpt>
      <trkpt lat="51.231178711819" lon="4.458426990194">
        <ele>0.4</ele>
        <time>2019-05-14T21:06:25Z</time>
      </trkpt>
      <trkpt lat="51.231195224162" lon="4.458399329924">
        <ele>0.4</ele>
        <time>2019-05-14T21:06:28Z</time>
      </trkpt>
      <trkpt lat="51.231424636765" lon="4.458303524807">
        <ele>1.4</ele>
        <time>2019-05-14T21:07:21Z</time>
      </trkpt>
      <trkpt lat="51.231842306842" lon="4.458036645111">
        <ele>2.2</ele>
        <time>2019-05-14T21:08:00Z</time>
      </trkpt>
      <trkpt lat="51.232040371139" lon="4.457911419525">
        <ele>3.6</ele>
        <time>2019-05-14T21:08:33Z</time>
      </trkpt>
      <trkpt lat="51.232363912479" lon="4.457607827107">
        <ele>7.4</ele>
        <time>2019-05-14T21:08:54Z</time>
      </trkpt>
      <trkpt lat="51.23215763392" lon="4.456958565133">
        <ele>13.6</ele>
        <time>2019-05-14T21:09:27Z</time>
      </trkpt>
      <trkpt lat="51.231782208619" lon="4.456562687996">
        <ele>21.8</ele>
        <time>2019-05-14T21:10:05Z</time>
      </trkpt>
      <trkpt lat="51.231386582939" lon="4.456307207684">
        <ele>14.4</ele>
        <time>2019-05-14T21:10:43Z</time>
      </trkpt>
      <trkpt lat="51.23107133968" lon="4.456216264069">
        <ele>5.6</ele>
        <time>2019-05-14T21:11:18Z</time>
      </trkpt>
      <trkpt lat="51.231048037998" lon="4.456185334858">
        <ele>5.4</ele>
        <time>2019-05-14T21:11:22Z</time>
      </trkpt>
      <trkpt lat="51.231023898126" lon="4.456157004036">
        <ele>4.6</ele>
        <time>2019-05-14T21:11:26Z</time>
      </trkpt>
      <trkpt lat="51.230940665859" lon="4.456150633792">
        <ele>3.8</ele>
        <time>2019-05-14T21:11:47Z</time>
      </trkpt>
      <trkpt lat="51.230773949868" lon="4.456223975417">
        <ele>7.8</ele>
        <time>2019-05-14T21:12:13Z</time>
      </trkpt>
      <trkpt lat="51.230537664107" lon="4.456333694488">
        <ele>13</ele>
        <time>2019-05-14T21:12:33Z</time>
      </trkpt>
      <trkpt lat="51.230082024023" lon="4.456485574516">
        <ele>13</ele>
        <time>2019-05-14T21:13:09Z</time>
      </trkpt>
      <trkpt lat="51.229790082446" lon="4.456595964139">
        <ele>14.4</ele>
        <time>2019-05-14T21:13:39Z</time>
      </trkpt>
      <trkpt lat="51.2296195946" lon="4.456610548645">
        <ele>6.4</ele>
        <time>2019-05-14T21:14:01Z</time>
      </trkpt>
      <trkpt lat="51.229425888891" lon="4.456682632985">
        <ele>8.8</ele>
        <time>2019-05-14T21:14:35Z</time>
      </trkpt>
      <trkpt lat="51.229110561813" lon="4.456813725901">
        <ele>11</ele>
        <time>2019-05-14T21:15:29Z</time>
      </trkpt>
      <trkpt lat="51.22906555101" lon="4.456830741158">
        <ele>12.4</ele>
        <time>2019-05-14T21:15:34Z</time>
      </trkpt>
      <trkpt lat="51.229126906518" lon="4.456947501025">
        <ele>7.8</ele>
        <time>2019-05-14T21:16:44Z</time>
      </trkpt>
      <trkpt lat="51.229559580196" lon="4.456696714577">
        <ele>10</ele>
        <time>2019-05-14T21:17:22Z</time>
      </trkpt>
      <trkpt lat="51.229634514382" lon="4.456642064589">
        <ele>11.4</ele>
        <time>2019-05-14T21:17:29Z</time>
      </trkpt>
      <trkpt lat="51.2297117955" lon="4.456927216827">
        <ele>6</ele>
        <time>2019-05-14T21:17:44Z</time>
      </trkpt>
      <trkpt lat="51.229842050226" lon="4.457620064681">
        <ele>6</ele>
        <time>2019-05-14T21:18:21Z</time>
      </trkpt>
      <trkpt lat="51.229955792609" lon="4.457796000762">
        <ele>8.4</ele>
        <time>2019-05-14T21:18:47Z</time>
      </trkpt>
      <trkpt lat="51.230045981853" lon="4.45779868297">
        <ele>9.8</ele>
        <time>2019-05-14T21:18:56Z</time>
      </trkpt>
      <trkpt lat="51.230315124662" lon="4.457752331063">
        <ele>10.8</ele>
        <time>2019-05-14T21:19:26Z</time>
      </trkpt>
      <trkpt lat="51.23037564198" lon="4.457709918649">
        <ele>5</ele>
        <time>2019-05-14T21:20:03Z</time>
      </trkpt>
      <trkpt lat="51.229928802891" lon="4.457834222226">
        <ele>6.4</ele>
        <time>2019-05-14T21:20:43Z</time>
      </trkpt>
      <trkpt lat="51.229920085715" lon="4.458050223789">
        <ele>3</ele>
        <time>2019-05-14T21:20:55Z</time>
      </trkpt>
      <trkpt lat="51.229754710828" lon="4.457976798345">
        <ele>0</ele>
        <time>2019-05-14T21:21:40Z</time>
      </trkpt>
      <trkpt lat="51.229737444114" lon="4.457986186073">
        <ele>0</ele>
        <time>2019-05-14T21:21:42Z</time>
      </trkpt>
      <trkpt lat="51.229692852406" lon="4.457958022889">
        <ele>0.8</ele>
        <time>2019-05-14T21:22:10Z</time>
      </trkpt>
      <trkpt lat="51.229700312297" lon="4.457962884391">
        <ele>2.6</ele>
        <time>2019-05-14T21:22:15Z</time>
      </trkpt>
    </trkseg>
  </trk>
</gpx>